Cap Palmerston — A8MW6 — position and weather

sailwx.info

Track history (hours):
 
Tides and Currents Weather Stations Pressure Air Temp Water Temp Dewpoint Dewpoint Depression Visibility Wind Speed Wind Dir Waves Ship Positions

Cap Palmerston

Last reported at 2018-Jun-19 18:00 UTC. Time now 2018-Jun-21 02:59 UTC.
Position N 19°48' W 106°12'.

Length 186 m; draft 8.9 m.

Type: Ship (hazmat cat A). MMSI: 636091380.

Wind from 290 at 9 knots

Barometer 1014.0 mb
Air temperature 26.0 ° C
Visibility: greater than 10.8 NM
Water temperature 31.0 ° C

Date/timePositionNaut miles runAvg speedWind from/ knotsBaromVisibWave heightAir tempDewpointWater temp
2018-Jun-19 18:00N 19°48' W 106°12'37815.7 290 / 91014.010.8 26.0 31.0
2018-Jun-18 18:00N 23°12' W 111°54'38916.2 320 / 201015.510.8 21.0 23.0
2018-Jun-17 18:00N 28°24' W 116°12'31616.5 320 / 91016.510.8 18.5 22.0
2018-Jun-16 22:53N 32°12' W 120°25'817.7
2018-Jun-16 22:26N 32°16' W 120°33'817.9
2018-Jun-16 22:00N 32°20' W 120°41'1917.3
2018-Jun-16 20:55N 32°38' W 120°49'918.2
2018-Jun-16 20:25N 32°47' W 120°51'3618.2
2018-Jun-16 18:26N 33°22' W 121°02'818.6
2018-Jun-16 18:00N 33°29' W 121°04'918.8
2018-Jun-16 17:30N 33°38' W 121°08'918.3
2018-Jun-16 17:00N 33°47' W 121°10'917.7
2018-Jun-16 16:30N 33°56' W 121°11'817.0
2018-Jun-16 16:00N 34°05' W 121°13'917.3
2018-Jun-16 15:30N 34°13' W 121°14'917.9
2018-Jun-16 15:01N 34°22' W 121°16'918.2
2018-Jun-16 14:30N 34°30' W 121°20'918.0
2018-Jun-16 14:00N 34°39' W 121°24'917.7
2018-Jun-16 13:30N 34°47' W 121°29'917.7
2018-Jun-16 13:01N 34°55' W 121°33'918.2
2018-Jun-16 12:30N 35°03' W 121°38'918.4
2018-Jun-16 12:00N 35°12' W 121°42'1118.3
2018-Jun-16 11:24N 35°22' W 121°48'918.4
2018-Jun-16 10:56N 35°29' W 121°52'818.1
2018-Jun-16 10:29N 35°37' W 121°56'918.0
2018-Jun-16 10:00N 35°45' W 122°00'918.4
2018-Jun-16 09:30N 35°53' W 122°05'918.6
2018-Jun-16 09:01N 36°02' W 122°09'917.7
2018-Jun-16 08:31N 36°10' W 122°14'917.2
2018-Jun-16 08:00N 36°18' W 122°19'918.1
2018-Jun-16 07:31N 36°26' W 122°23'917.7
2018-Jun-16 07:00N 36°34' W 122°26'917.6
2018-Jun-16 06:30N 36°43' W 122°30'1017.7
2018-Jun-16 05:58N 36°52' W 122°34'817.8
2018-Jun-16 05:30N 36°59' W 122°38'917.6
2018-Jun-16 05:00N 37°07' W 122°42'817.0
2018-Jun-16 04:30N 37°16' W 122°44'917.3
2018-Jun-16 04:01N 37°24' W 122°44'917.3
2018-Jun-16 03:31N 37°33' W 122°43'816.8
2018-Jun-16 03:01N 37°41' W 122°43'612.5
2018-Jun-16 02:30N 37°46' W 122°38'815.8
2018-Jun-16 02:00N 37°49' W 122°28'611.5
2018-Jun-16 01:30N 37°48' W 122°21'2 4.1
2018-Jun-16 01:00N 37°48' W 122°19'0 0.5
2018-Jun-16 00:29N 37°48' W 122°19'0 0.0
2018-Jun-15 23:59N 37°48' W 122°19'0 0.0
2018-Jun-15 23:26N 37°48' W 122°19'0 0.0
2018-Jun-15 22:59N 37°48' W 122°19'0 0.0
2018-Jun-15 22:29N 37°48' W 122°19'0 0.0
2018-Jun-15 21:59N 37°48' W 122°19'0 0.0
2018-Jun-15 21:29N 37°48' W 122°19'0 0.0
2018-Jun-15 20:59N 37°48' W 122°19'0 0.0
2018-Jun-15 20:29N 37°48' W 122°19'0 0.0
2018-Jun-15 19:59N 37°48' W 122°19'0 0.0
2018-Jun-15 19:29N 37°48' W 122°19'0 0.0
2018-Jun-15 18:59N 37°48' W 122°19'0 0.0
2018-Jun-15 18:29N 37°48' W 122°19'0 0.0
2018-Jun-15 17:59N 37°48' W 122°19'0 0.0
2018-Jun-15 17:26N 37°48' W 122°19'0 0.0
2018-Jun-15 16:59N 37°48' W 122°19'0 0.0
2018-Jun-15 16:26N 37°48' W 122°19'0 0.0
2018-Jun-15 15:59N 37°48' W 122°19'0 0.0
2018-Jun-15 15:29N 37°48' W 122°19'0 0.0
2018-Jun-15 14:56N 37°48' W 122°19'0 0.0
2018-Jun-15 14:29N 37°48' W 122°19'0 0.0
2018-Jun-15 13:59N 37°48' W 122°19'0 0.0
2018-Jun-15 13:29N 37°48' W 122°19'0 0.4
2018-Jun-15 13:00N 37°48' W 122°19'4 7.3
2018-Jun-15 12:30N 37°49' W 122°24'510.0
2018-Jun-15 12:00N 37°48' W 122°30'611.2
2018-Jun-15 11:30N 37°46' W 122°37'4 8.4
2018-Jun-15 11:00N 37°43' W 122°40'3 6.9
2018-Jun-15 10:31N 37°40' W 122°40'714.2
2018-Jun-15 10:00N 37°33' W 122°40'815.3
2018-Jun-15 09:30N 37°25' W 122°40'815.6
2018-Jun-15 09:00N 37°17' W 122°39'815.6
2018-Jun-15 08:30N 37°10' W 122°37'815.6
2018-Jun-15 07:59N 37°02' W 122°35'1016.0
2018-Jun-15 07:20N 36°52' W 122°31'8516.3
2018-Jun-15 02:06N 35°37' W 121°42'315.8
2018-Jun-15 01:54N 35°34' W 121°39'715.8
2018-Jun-15 01:28N 35°28' W 121°35'716.2
2018-Jun-15 01:00N 35°22' W 121°30'816.0
2018-Jun-15 00:31N 35°15' W 121°25'815.9
2018-Jun-15 00:00N 35°08' W 121°20'816.4
2018-Jun-14 23:30N 35°01' W 121°16'816.0
2018-Jun-14 23:01N 34°54' W 121°11'816.1
2018-Jun-14 22:30N 34°47' W 121°06'815.9
2018-Jun-14 22:01N 34°40' W 121°02'816.1
2018-Jun-14 21:30N 34°33' W 120°56'816.2
2018-Jun-14 21:00N 34°26' W 120°51'816.0
2018-Jun-14 20:30N 34°24' W 120°42'815.8
2018-Jun-14 20:00N 34°22' W 120°32'815.9
2018-Jun-14 19:30N 34°19' W 120°23'816.7
2018-Jun-14 19:00N 34°17' W 120°13'916.7
2018-Jun-14 18:27N 34°15' W 120°03'716.6
2018-Jun-14 18:00N 34°13' W 119°54'184.2
2018-Jun-14 18:00N 34°12' W 119°54'816.1 240 / 111012.5 5.4 15.5 19.0
2018-Jun-14 17:29N 34°11' W 119°44'916.9
2018-Jun-14 16:58N 34°09' W 119°34'816.9
2018-Jun-14 16:30N 34°06' W 119°25'816.7
2018-Jun-14 16:01N 34°04' W 119°15'816.6
2018-Jun-14 15:30N 34°00' W 119°06'713.4
2018-Jun-14 15:00N 33°57' W 118°59'612.0
2018-Jun-14 14:30N 33°54' W 118°53'611.5
2018-Jun-14 14:00N 33°51' W 118°47'612.0
2018-Jun-14 13:29N 33°48' W 118°41'612.2
2018-Jun-14 13:00N 33°45' W 118°35'611.9
2018-Jun-14 12:30N 33°42' W 118°28'612.0
2018-Jun-14 12:00N 33°39' W 118°22'611.6
2018-Jun-14 11:30N 33°38' W 118°15'510.6
2018-Jun-14 11:00N 33°42' W 118°11'3 6.6
2018-Jun-14 10:30N 33°45' W 118°13'1 2.3
2018-Jun-14 10:01N 33°46' W 118°14'0 0.2
2018-Jun-14 09:28N 33°46' W 118°14'0 0.0
2018-Jun-14 08:58N 33°46' W 118°14'0 0.0
2018-Jun-14 08:29N 33°46' W 118°14'0 0.0
2018-Jun-14 07:58N 33°46' W 118°14'0 0.0
2018-Jun-14 07:28N 33°46' W 118°14'0 0.0
2018-Jun-14 06:58N 33°46' W 118°14'0 0.0
2018-Jun-14 06:28N 33°46' W 118°14'0 0.0
2018-Jun-14 05:58N 33°46' W 118°14'0 0.0
2018-Jun-14 05:28N 33°46' W 118°14'0 0.0
2018-Jun-14 04:58N 33°46' W 118°14'0 0.0
2018-Jun-14 04:28N 33°46' W 118°14'0 0.0
2018-Jun-14 03:58N 33°46' W 118°14'0 0.0
2018-Jun-14 03:29N 33°46' W 118°14'0 0.0
2018-Jun-14 02:58N 33°46' W 118°14'0 0.0
2018-Jun-14 02:28N 33°46' W 118°14'0 0.0
2018-Jun-14 01:58N 33°46' W 118°14'0 0.0
2018-Jun-14 01:28N 33°46' W 118°14'0 0.0
2018-Jun-14 00:58N 33°46' W 118°14'0 0.0
2018-Jun-14 00:25N 33°46' W 118°14'0 0.0
2018-Jun-13 23:58N 33°46' W 118°14'0 0.0
2018-Jun-13 23:28N 33°46' W 118°14'0 0.0
2018-Jun-13 22:58N 33°46' W 118°14'0 0.0
2018-Jun-13 22:28N 33°46' W 118°14'0 0.0
2018-Jun-13 21:58N 33°46' W 118°14'0 0.0
2018-Jun-13 21:28N 33°46' W 118°14'0 0.0
2018-Jun-13 20:58N 33°46' W 118°14'0 0.0
2018-Jun-13 20:28N 33°46' W 118°14'0 0.0
2018-Jun-13 19:58N 33°46' W 118°14'0 0.0
2018-Jun-13 19:28N 33°46' W 118°14'0 0.0
2018-Jun-13 18:58N 33°46' W 118°14'0 0.0
2018-Jun-13 18:28N 33°46' W 118°14'0 0.0
2018-Jun-13 17:58N 33°46' W 118°14'0 0.0
2018-Jun-13 17:28N 33°46' W 118°14'0 0.0
2018-Jun-13 16:58N 33°46' W 118°14'0 0.0
2018-Jun-13 16:28N 33°46' W 118°14'0 0.0
2018-Jun-13 15:58N 33°46' W 118°14'0 0.0
2018-Jun-13 15:28N 33°46' W 118°14'0 0.0
2018-Jun-13 14:55N 33°46' W 118°14'0 0.0
2018-Jun-13 14:28N 33°46' W 118°14'0 0.0
2018-Jun-13 13:58N 33°46' W 118°14'0 0.0
2018-Jun-13 13:28N 33°46' W 118°14'0 0.3
2018-Jun-13 13:00N 33°46' W 118°14'1 2.6
2018-Jun-13 12:30N 33°45' W 118°13'4 7.3
2018-Jun-13 12:00N 33°42' W 118°11'4 7.5
2018-Jun-13 11:30N 33°38' W 118°10'4 7.2
2018-Jun-13 11:00N 33°35' W 118°09'4 7.2
2018-Jun-13 10:30N 33°31' W 118°08'4 7.2
2018-Jun-13 10:00N 33°28' W 118°07'4 7.0
2018-Jun-13 09:28N 33°24' W 118°05'3 7.0
2018-Jun-13 09:00N 33°21' W 118°04'3 7.0
2018-Jun-13 08:30N 33°18' W 118°02'4 7.3
2018-Jun-13 08:00N 33°14' W 118°01'4 7.7
2018-Jun-13 07:30N 33°11' W 117°59'5 9.8
2018-Jun-13 07:00N 33°06' W 117°57'5 9.9
2018-Jun-13 06:30N 33°02' W 117°55'5 9.6
2018-Jun-13 06:00N 32°57' W 117°52'5 9.3
2018-Jun-13 05:30N 32°53' W 117°50'5 9.3
2018-Jun-13 05:00N 32°49' W 117°47'4 7.6
2018-Jun-13 04:31N 32°46' W 117°45'5 9.9
2018-Jun-13 04:00N 32°41' W 117°43'510.7
2018-Jun-13 03:30N 32°37' W 117°40'5 9.4
2018-Jun-13 03:00N 32°32' W 117°38'6 9.6
2018-Jun-13 02:23N 32°26' W 117°36'410.0
2018-Jun-13 02:00N 32°23' W 117°34'816.3
2018-Jun-13 01:29N 32°15' W 117°31'1117.0
2018-Jun-13 00:50N 32°04' W 117°27'2517.2
2018-Jun-12 23:22N 31°41' W 117°17'817.4
2018-Jun-12 22:55N 31°33' W 117°14'1917.3
2018-Jun-12 21:48N 31°15' W 117°07'517.3
2018-Jun-12 21:30N 31°10' W 117°05'917.4
2018-Jun-12 20:59N 31°02' W 117°01'1117.4
2018-Jun-12 20:21N 30°51' W 116°57'3517.2
2018-Jun-12 18:19N 30°18' W 116°44'817.4
2018-Jun-12 17:52N 30°11' W 116°41'19917.5
2018-Jun-12 06:29N 27°09' W 115°08'817.1
2018-Jun-12 06:00N 27°03' W 115°02'3117.4
2018-Jun-12 04:12N 26°38' W 114°41'317.0
2018-Jun-12 04:00N 26°35' W 114°39'17717.7
2018-Jun-11 18:00N 24°12' W 112°42'   310 / 91010.010.8 20.0 23.0
Track history (hours):
 
Tides and Currents Weather Stations Pressure Air Temp Water Temp Dewpoint Dewpoint Depression Visibility Wind Speed Wind Dir Waves Ship Positions

Cap Palmerston

Last reported at 2018-Jun-19 18:00 UTC. Time now 2018-Jun-21 02:59 UTC.
Position N 19°48' W 106°12'.

Length 186 m; draft 8.9 m.

Type: Ship (hazmat cat A). MMSI: 636091380.

Wind from 290 at 9 knots

Barometer 1014.0 mb
Air temperature 26.0 ° C
Visibility: greater than 10.8 NM
Water temperature 31.0 ° C

Date/timePositionNaut miles runAvg speedWind from/ knotsBaromVisibWave heightAir tempDewpointWater temp
2018-Jun-19 18:00N 19°48' W 106°12'37815.7 290 / 91014.010.8 26.0 31.0
2018-Jun-18 18:00N 23°12' W 111°54'38916.2 320 / 201015.510.8 21.0 23.0
2018-Jun-17 18:00N 28°24' W 116°12'31616.5 320 / 91016.510.8 18.5 22.0
2018-Jun-16 22:53N 32°12' W 120°25'817.7
2018-Jun-16 22:26N 32°16' W 120°33'817.9
2018-Jun-16 22:00N 32°20' W 120°41'1917.3
2018-Jun-16 20:55N 32°38' W 120°49'918.2
2018-Jun-16 20:25N 32°47' W 120°51'3618.2
2018-Jun-16 18:26N 33°22' W 121°02'818.6
2018-Jun-16 18:00N 33°29' W 121°04'918.8
2018-Jun-16 17:30N 33°38' W 121°08'918.3
2018-Jun-16 17:00N 33°47' W 121°10'917.7
2018-Jun-16 16:30N 33°56' W 121°11'817.0
2018-Jun-16 16:00N 34°05' W 121°13'917.3
2018-Jun-16 15:30N 34°13' W 121°14'917.9
2018-Jun-16 15:01N 34°22' W 121°16'918.2
2018-Jun-16 14:30N 34°30' W 121°20'918.0
2018-Jun-16 14:00N 34°39' W 121°24'917.7
2018-Jun-16 13:30N 34°47' W 121°29'917.7
2018-Jun-16 13:01N 34°55' W 121°33'918.2
2018-Jun-16 12:30N 35°03' W 121°38'918.4
2018-Jun-16 12:00N 35°12' W 121°42'1118.3
2018-Jun-16 11:24N 35°22' W 121°48'918.4
2018-Jun-16 10:56N 35°29' W 121°52'818.1
2018-Jun-16 10:29N 35°37' W 121°56'918.0
2018-Jun-16 10:00N 35°45' W 122°00'918.4
2018-Jun-16 09:30N 35°53' W 122°05'918.6
2018-Jun-16 09:01N 36°02' W 122°09'917.7
2018-Jun-16 08:31N 36°10' W 122°14'917.2
2018-Jun-16 08:00N 36°18' W 122°19'918.1
2018-Jun-16 07:31N 36°26' W 122°23'917.7
2018-Jun-16 07:00N 36°34' W 122°26'917.6
2018-Jun-16 06:30N 36°43' W 122°30'1017.7
2018-Jun-16 05:58N 36°52' W 122°34'817.8
2018-Jun-16 05:30N 36°59' W 122°38'917.6
2018-Jun-16 05:00N 37°07' W 122°42'817.0
2018-Jun-16 04:30N 37°16' W 122°44'917.3
2018-Jun-16 04:01N 37°24' W 122°44'917.3
2018-Jun-16 03:31N 37°33' W 122°43'816.8
2018-Jun-16 03:01N 37°41' W 122°43'612.5
2018-Jun-16 02:30N 37°46' W 122°38'815.8
2018-Jun-16 02:00N 37°49' W 122°28'611.5
2018-Jun-16 01:30N 37°48' W 122°21'2 4.1
2018-Jun-16 01:00N 37°48' W 122°19'0 0.5
2018-Jun-16 00:29N 37°48' W 122°19'0 0.0
2018-Jun-15 23:59N 37°48' W 122°19'0 0.0
2018-Jun-15 23:26N 37°48' W 122°19'0 0.0
2018-Jun-15 22:59N 37°48' W 122°19'0 0.0
2018-Jun-15 22:29N 37°48' W 122°19'0 0.0
2018-Jun-15 21:59N 37°48' W 122°19'0 0.0
2018-Jun-15 21:29N 37°48' W 122°19'0 0.0
2018-Jun-15 20:59N 37°48' W 122°19'0 0.0
2018-Jun-15 20:29N 37°48' W 122°19'0 0.0
2018-Jun-15 19:59N 37°48' W 122°19'0 0.0
2018-Jun-15 19:29N 37°48' W 122°19'0 0.0
2018-Jun-15 18:59N 37°48' W 122°19'0 0.0
2018-Jun-15 18:29N 37°48' W 122°19'0 0.0
2018-Jun-15 17:59N 37°48' W 122°19'0 0.0
2018-Jun-15 17:26N 37°48' W 122°19'0 0.0
2018-Jun-15 16:59N 37°48' W 122°19'0 0.0
2018-Jun-15 16:26N 37°48' W 122°19'0 0.0
2018-Jun-15 15:59N 37°48' W 122°19'0 0.0
2018-Jun-15 15:29N 37°48' W 122°19'0 0.0
2018-Jun-15 14:56N 37°48' W 122°19'0 0.0
2018-Jun-15 14:29N 37°48' W 122°19'0 0.0
2018-Jun-15 13:59N 37°48' W 122°19'0 0.0
2018-Jun-15 13:29N 37°48' W 122°19'0 0.4
2018-Jun-15 13:00N 37°48' W 122°19'4 7.3
2018-Jun-15 12:30N 37°49' W 122°24'510.0
2018-Jun-15 12:00N 37°48' W 122°30'611.2
2018-Jun-15 11:30N 37°46' W 122°37'4 8.4
2018-Jun-15 11:00N 37°43' W 122°40'3 6.9
2018-Jun-15 10:31N 37°40' W 122°40'714.2
2018-Jun-15 10:00N 37°33' W 122°40'815.3
2018-Jun-15 09:30N 37°25' W 122°40'815.6
2018-Jun-15 09:00N 37°17' W 122°39'815.6
2018-Jun-15 08:30N 37°10' W 122°37'815.6
2018-Jun-15 07:59N 37°02' W 122°35'1016.0
2018-Jun-15 07:20N 36°52' W 122°31'8516.3
2018-Jun-15 02:06N 35°37' W 121°42'315.8
2018-Jun-15 01:54N 35°34' W 121°39'715.8
2018-Jun-15 01:28N 35°28' W 121°35'716.2
2018-Jun-15 01:00N 35°22' W 121°30'816.0
2018-Jun-15 00:31N 35°15' W 121°25'815.9
2018-Jun-15 00:00N 35°08' W 121°20'816.4
2018-Jun-14 23:30N 35°01' W 121°16'816.0
2018-Jun-14 23:01N 34°54' W 121°11'816.1
2018-Jun-14 22:30N 34°47' W 121°06'815.9
2018-Jun-14 22:01N 34°40' W 121°02'816.1
2018-Jun-14 21:30N 34°33' W 120°56'816.2
2018-Jun-14 21:00N 34°26' W 120°51'816.0
2018-Jun-14 20:30N 34°24' W 120°42'815.8
2018-Jun-14 20:00N 34°22' W 120°32'815.9
2018-Jun-14 19:30N 34°19' W 120°23'816.7
2018-Jun-14 19:00N 34°17' W 120°13'916.7
2018-Jun-14 18:27N 34°15' W 120°03'716.6
2018-Jun-14 18:00N 34°13' W 119°54'184.2
2018-Jun-14 18:00N 34°12' W 119°54'816.1 240 / 111012.5 5.4 15.5 19.0
2018-Jun-14 17:29N 34°11' W 119°44'916.9
2018-Jun-14 16:58N 34°09' W 119°34'816.9
2018-Jun-14 16:30N 34°06' W 119°25'816.7
2018-Jun-14 16:01N 34°04' W 119°15'816.6
2018-Jun-14 15:30N 34°00' W 119°06'713.4
2018-Jun-14 15:00N 33°57' W 118°59'612.0
2018-Jun-14 14:30N 33°54' W 118°53'611.5
2018-Jun-14 14:00N 33°51' W 118°47'612.0
2018-Jun-14 13:29N 33°48' W 118°41'612.2
2018-Jun-14 13:00N 33°45' W 118°35'611.9
2018-Jun-14 12:30N 33°42' W 118°28'612.0
2018-Jun-14 12:00N 33°39' W 118°22'611.6
2018-Jun-14 11:30N 33°38' W 118°15'510.6
2018-Jun-14 11:00N 33°42' W 118°11'3 6.6
2018-Jun-14 10:30N 33°45' W 118°13'1 2.3
2018-Jun-14 10:01N 33°46' W 118°14'0 0.2
2018-Jun-14 09:28N 33°46' W 118°14'0 0.0
2018-Jun-14 08:58N 33°46' W 118°14'0 0.0
2018-Jun-14 08:29N 33°46' W 118°14'0 0.0
2018-Jun-14 07:58N 33°46' W 118°14'0 0.0
2018-Jun-14 07:28N 33°46' W 118°14'0 0.0
2018-Jun-14 06:58N 33°46' W 118°14'0 0.0
2018-Jun-14 06:28N 33°46' W 118°14'0 0.0
2018-Jun-14 05:58N 33°46' W 118°14'0 0.0
2018-Jun-14 05:28N 33°46' W 118°14'0 0.0
2018-Jun-14 04:58N 33°46' W 118°14'0 0.0
2018-Jun-14 04:28N 33°46' W 118°14'0 0.0
2018-Jun-14 03:58N 33°46' W 118°14'0 0.0
2018-Jun-14 03:29N 33°46' W 118°14'0 0.0
2018-Jun-14 02:58N 33°46' W 118°14'0 0.0
2018-Jun-14 02:28N 33°46' W 118°14'0 0.0
2018-Jun-14 01:58N 33°46' W 118°14'0 0.0
2018-Jun-14 01:28N 33°46' W 118°14'0 0.0
2018-Jun-14 00:58N 33°46' W 118°14'0 0.0
2018-Jun-14 00:25N 33°46' W 118°14'0 0.0
2018-Jun-13 23:58N 33°46' W 118°14'0 0.0
2018-Jun-13 23:28N 33°46' W 118°14'0 0.0
2018-Jun-13 22:58N 33°46' W 118°14'0 0.0
2018-Jun-13 22:28N 33°46' W 118°14'0 0.0
2018-Jun-13 21:58N 33°46' W 118°14'0 0.0
2018-Jun-13 21:28N 33°46' W 118°14'0 0.0
2018-Jun-13 20:58N 33°46' W 118°14'0 0.0
2018-Jun-13 20:28N 33°46' W 118°14'0 0.0
2018-Jun-13 19:58N 33°46' W 118°14'0 0.0
2018-Jun-13 19:28N 33°46' W 118°14'0 0.0
2018-Jun-13 18:58N 33°46' W 118°14'0 0.0
2018-Jun-13 18:28N 33°46' W 118°14'0 0.0
2018-Jun-13 17:58N 33°46' W 118°14'0 0.0
2018-Jun-13 17:28N 33°46' W 118°14'0 0.0
2018-Jun-13 16:58N 33°46' W 118°14'0 0.0
2018-Jun-13 16:28N 33°46' W 118°14'0 0.0
2018-Jun-13 15:58N 33°46' W 118°14'0 0.0
2018-Jun-13 15:28N 33°46' W 118°14'0 0.0
2018-Jun-13 14:55N 33°46' W 118°14'0 0.0
2018-Jun-13 14:28N 33°46' W 118°14'0 0.0
2018-Jun-13 13:58N 33°46' W 118°14'0 0.0
2018-Jun-13 13:28N 33°46' W 118°14'0 0.3
2018-Jun-13 13:00N 33°46' W 118°14'1 2.6
2018-Jun-13 12:30N 33°45' W 118°13'4 7.3
2018-Jun-13 12:00N 33°42' W 118°11'4 7.5
2018-Jun-13 11:30N 33°38' W 118°10'4 7.2
2018-Jun-13 11:00N 33°35' W 118°09'4 7.2
2018-Jun-13 10:30N 33°31' W 118°08'4 7.2
2018-Jun-13 10:00N 33°28' W 118°07'4 7.0
2018-Jun-13 09:28N 33°24' W 118°05'3 7.0
2018-Jun-13 09:00N 33°21' W 118°04'3 7.0
2018-Jun-13 08:30N 33°18' W 118°02'4 7.3
2018-Jun-13 08:00N 33°14' W 118°01'4 7.7
2018-Jun-13 07:30N 33°11' W 117°59'5 9.8
2018-Jun-13 07:00N 33°06' W 117°57'5 9.9
2018-Jun-13 06:30N 33°02' W 117°55'5 9.6
2018-Jun-13 06:00N 32°57' W 117°52'5 9.3
2018-Jun-13 05:30N 32°53' W 117°50'5 9.3
2018-Jun-13 05:00N 32°49' W 117°47'4 7.6
2018-Jun-13 04:31N 32°46' W 117°45'5 9.9
2018-Jun-13 04:00N 32°41' W 117°43'510.7
2018-Jun-13 03:30N 32°37' W 117°40'5 9.4
2018-Jun-13 03:00N 32°32' W 117°38'6 9.6
2018-Jun-13 02:23N 32°26' W 117°36'410.0
2018-Jun-13 02:00N 32°23' W 117°34'816.3
2018-Jun-13 01:29N 32°15' W 117°31'1117.0
2018-Jun-13 00:50N 32°04' W 117°27'2517.2
2018-Jun-12 23:22N 31°41' W 117°17'817.4
2018-Jun-12 22:55N 31°33' W 117°14'1917.3
2018-Jun-12 21:48N 31°15' W 117°07'517.3
2018-Jun-12 21:30N 31°10' W 117°05'917.4
2018-Jun-12 20:59N 31°02' W 117°01'1117.4
2018-Jun-12 20:21N 30°51' W 116°57'3517.2
2018-Jun-12 18:19N 30°18' W 116°44'817.4
2018-Jun-12 17:52N 30°11' W 116°41'19917.5
2018-Jun-12 06:29N 27°09' W 115°08'817.1
2018-Jun-12 06:00N 27°03' W 115°02'3117.4
2018-Jun-12 04:12N 26°38' W 114°41'317.0
2018-Jun-12 04:00N 26°35' W 114°39'17717.7
2018-Jun-11 18:00N 24°12' W 112°42'   310 / 91010.010.8 20.0 23.0

Dump ship's entire track history